createdAt,value
2019-03-05T00:02:12.339Z,5.238037
2019-03-05T00:07:35.794Z,5.238037
2019-03-05T00:12:58.689Z,5.238037
2019-03-05T00:18:21.324Z,5.258179
2019-03-05T00:23:45.695Z,5.238037
2019-03-05T00:29:08.518Z,5.298462
2019-03-05T00:34:31.473Z,5.348816
2019-03-05T00:39:54.130Z,5.469666
2019-03-05T00:45:17.414Z,5.550232
2019-03-05T00:50:40.234Z,5.600586
2019-03-05T00:56:03.343Z,5.691223
2019-03-05T01:01:26.437Z,5.701294
2019-03-05T01:06:49.139Z,5.872498
2019-03-05T01:12:11.946Z,5.932922
2019-03-05T01:17:35.721Z,5.852356
2019-03-05T01:22:58.584Z,5.993347
2019-03-05T01:28:21.375Z,6.013489
2019-03-05T01:33:45.145Z,6.063843
2019-03-05T01:39:10.212Z,6.03363
2019-03-05T01:44:33.168Z,6.134338
2019-03-05T01:49:55.796Z,6.083984
2019-03-05T01:55:18.434Z,6.02356
2019-03-05T02:00:41.119Z,6.053772
2019-03-05T02:06:03.790Z,6.053772
2019-03-05T02:11:27.456Z,6.144409
2019-03-05T02:16:50.112Z,6.104126
2019-03-05T02:22:13.024Z,6.013489
2019-03-05T02:27:35.820Z,6.02356
2019-03-05T02:32:58.507Z,5.983276
2019-03-05T02:38:22.308Z,6.02356
2019-03-05T02:43:45.151Z,6.083984
2019-03-05T02:49:08.568Z,6.063843
2019-03-05T02:54:33.267Z,5.983276
2019-03-05T02:59:56.021Z,6.03363
2019-03-05T03:05:18.641Z,6.02356
2019-03-05T03:10:41.407Z,6.013489
2019-03-05T03:16:04.133Z,5.932922
2019-03-05T03:21:27.157Z,5.993347
2019-03-05T03:26:50.953Z,6.013489
2019-03-05T03:32:13.755Z,5.953064
2019-03-05T03:37:37.534Z,5.993347
2019-03-05T03:43:00.325Z,5.882568
2019-03-05T03:48:23.295Z,5.852356
2019-03-05T03:53:46.252Z,5.65094
2019-03-05T03:59:09.201Z,5.590515
2019-03-05T04:04:32.054Z,5.620728
2019-03-05T04:09:54.742Z,5.489807
2019-03-05T04:15:17.583Z,5.238037
2019-03-05T04:20:40.450Z,5.086975
2019-03-05T04:26:03.695Z,5.046692
2019-03-05T04:31:26.359Z,4.966125
2019-03-05T04:36:48.917Z,4.956055
2019-03-05T04:42:11.665Z,4.875488
2019-03-05T04:47:35.242Z,4.966125
2019-03-05T04:52:57.894Z,5.046692
2019-03-05T04:58:20.896Z,5.107117
2019-03-05T05:03:43.698Z,5.086975
2019-03-05T05:09:06.487Z,5.137329
2019-03-05T05:14:29.419Z,5.117188
2019-03-05T05:19:52.526Z,5.197754
2019-03-05T05:25:15.671Z,5.187683
2019-03-05T05:30:38.421Z,5.197754
2019-03-05T05:36:03.686Z,5.187683
2019-03-05T05:41:26.733Z,5.197754
2019-03-05T05:46:49.618Z,5.258179
2019-03-05T05:52:12.636Z,5.187683
2019-03-05T05:57:36.025Z,5.197754
2019-03-05T06:02:58.226Z,5.227966
2019-03-05T06:08:20.910Z,5.167542
2019-03-05T06:13:43.622Z,5.197754
2019-03-05T06:19:06.293Z,5.187683
2019-03-05T06:24:29.021Z,5.107117
2019-03-05T06:29:51.750Z,5.046692
2019-03-05T06:35:14.422Z,4.986267
2019-03-05T06:40:37.372Z,4.966125
2019-03-05T06:46:00.243Z,4.835205
2019-03-05T06:51:22.977Z,4.855347
2019-03-05T06:56:45.814Z,4.925842
2019-03-05T07:02:08.729Z,5.036621
2019-03-05T07:07:31.448Z,5.076904
2019-03-05T07:12:54.330Z,5.117188
2019-03-05T07:18:17.482Z,5.1474
2019-03-05T07:23:43.037Z,5.217896
2019-03-05T07:29:03.547Z,5.328674
2019-03-05T07:34:26.252Z,5.217896
2019-03-05T07:39:49.074Z,5.046692
2019-03-05T07:45:12.305Z,5.076904
2019-03-05T07:50:35.935Z,5.137329
2019-03-05T07:55:59.445Z,5.298462
2019-03-05T08:01:22.703Z,5.439453
2019-03-05T08:06:44.856Z,5.52002
2019-03-05T08:12:07.901Z,5.560303
2019-03-05T08:17:31.424Z,5.630798
2019-03-05T08:22:54.361Z,5.78186
2019-03-05T08:28:17.131Z,5.922852
2019-03-05T08:33:39.820Z,5.983276
2019-03-05T08:39:03.384Z,6.295471
2019-03-05T08:44:27.069Z,6.164551
2019-03-05T08:49:49.893Z,6.083984
2019-03-05T08:55:15.084Z,6.27533
2019-03-05T09:00:37.773Z,6.325684
2019-03-05T09:06:01.625Z,6.426392
2019-03-05T09:11:24.410Z,6.647949
2019-03-05T09:16:48.233Z,6.708374
2019-03-05T09:22:10.990Z,6.889648
2019-03-05T09:27:34.523Z,6.940002
2019-03-05T09:32:57.305Z,6.718445
2019-03-05T09:38:19.974Z,6.647949
2019-03-05T09:43:44.869Z,6.053772
2019-03-05T09:49:08.511Z,6.345825
2019-03-05T09:54:32.191Z,6.235046
2019-03-05T09:59:55.639Z,6.929932
2019-03-05T10:05:19.147Z,6.688232
2019-03-05T10:10:41.766Z,6.265259
2019-03-05T10:16:04.443Z,5.993347
2019-03-05T10:21:27.129Z,6.083984
2019-03-05T10:26:51.513Z,6.164551
2019-03-05T10:32:14.212Z,6.245117
2019-03-05T10:37:36.891Z,6.496887
2019-03-05T10:43:08.269Z,6.637878
2019-03-05T10:48:24.367Z,7.04071
2019-03-05T10:53:47.115Z,7.211914
2019-03-05T10:59:09.922Z,7.242126
2019-03-05T11:04:32.651Z,7.191772
2019-03-05T11:09:56.386Z,7.373047
2019-03-05T11:15:18.979Z,7.453613
2019-03-05T11:20:41.665Z,7.423401
2019-03-05T11:26:04.355Z,7.362976
2019-03-05T11:31:27.050Z,6.829224
2019-03-05T11:36:49.789Z,6.78894
2019-03-05T11:42:14.516Z,6.647949
2019-03-05T11:47:37.896Z,7.050781
2019-03-05T11:53:00.614Z,7.302551
2019-03-05T11:58:23.907Z,7.554321
2019-03-05T12:03:47.647Z,7.302551
2019-03-05T12:09:10.386Z,8.430481
2019-03-05T12:14:33.218Z,8.208923
2019-03-05T12:19:55.885Z,8.782959
2019-03-05T12:25:18.606Z,8.390198
2019-03-05T12:30:41.364Z,8.390198
2019-03-05T12:36:04.683Z,9.810181
2019-03-05T12:41:27.375Z,9.367065
2019-03-05T12:46:50.285Z,8.913879
2019-03-05T12:52:13.224Z,10.092163
2019-03-05T12:57:35.998Z,11.008606
2019-03-05T13:02:59.785Z,11.451721
2019-03-05T13:08:22.405Z,10.696411
2019-03-05T13:13:47.450Z,10.283508
2019-03-05T13:19:09.447Z,9.256287
2019-03-05T13:24:29.468Z,8.974304
2019-03-05T13:29:53.670Z,9.558411
2019-03-05T13:35:16.411Z,10.112305
2019-03-05T13:40:40.568Z,9.266357
2019-03-05T13:46:00.876Z,8.833313
2019-03-05T13:51:24.160Z,8.823242
2019-03-05T13:56:46.461Z,8.782959
2019-03-05T14:02:09.111Z,8.641968
2019-03-05T14:07:32.412Z,8.803101
2019-03-05T14:12:55.258Z,8.762817
2019-03-05T14:18:17.974Z,8.913879
2019-03-05T14:23:40.706Z,9.165649
2019-03-05T14:29:04.777Z,9.67926
2019-03-05T14:34:27.462Z,9.578552
2019-03-05T14:39:50.131Z,9.487915
2019-03-05T14:45:12.923Z,9.014587
2019-03-05T14:50:35.894Z,9.477844
2019-03-05T14:55:58.698Z,9.729614
2019-03-05T15:01:21.512Z,9.93103
2019-03-05T15:06:44.902Z,10.313721
2019-03-05T15:12:07.681Z,11.572571
2019-03-05T15:17:31.402Z,12.076111
2019-03-05T15:22:55.372Z,13.143616
2019-03-05T15:28:19.002Z,12.69043
2019-03-05T15:33:41.756Z,11.381226
2019-03-05T15:39:04.457Z,10.837402
2019-03-05T15:44:27.215Z,10.80719
2019-03-05T15:49:49.971Z,11.632996
2019-03-05T15:55:12.716Z,11.753845
2019-03-05T16:00:36.700Z,10.313721
2019-03-05T16:06:00.432Z,10.132446
2019-03-05T16:11:23.209Z,11.169739
2019-03-05T16:16:46.893Z,10.384216
2019-03-05T16:22:09.693Z,10.615845
2019-03-05T16:27:33.457Z,9.518127
2019-03-05T16:32:59.896Z,8.883667
2019-03-05T16:38:20.149Z,8.631897
2019-03-05T16:43:43.106Z,8.54126
2019-03-05T16:49:06.497Z,8.400269
2019-03-05T16:54:29.238Z,8.118286
2019-03-05T16:59:53.322Z,7.997437
2019-03-05T17:05:15.970Z,7.634888
2019-03-05T17:10:38.611Z,7.373047
2019-03-05T17:16:01.349Z,7.050781
2019-03-05T17:21:27.317Z,6.899719
2019-03-05T17:26:46.771Z,6.889648
2019-03-05T17:32:10.486Z,6.708374
2019-03-05T17:37:35.055Z,6.627808
2019-03-05T17:42:55.748Z,6.627808
2019-03-05T17:48:18.478Z,6.416321
2019-03-05T17:53:41.275Z,6.214905
2019-03-05T17:59:04.014Z,6.063843
2019-03-05T18:04:27.738Z,5.922852
2019-03-05T18:09:50.422Z,5.691223
2019-03-05T18:15:14.877Z,5.560303
2019-03-05T18:20:46.358Z,5.368958
2019-03-05T18:26:09.887Z,5.620728
2019-03-05T18:31:32.652Z,5.187683
2019-03-05T18:36:55.485Z,4.613647
2019-03-05T18:42:18.199Z,4.110107
2019-03-05T18:47:40.964Z,3.88855
2019-03-05T18:53:03.834Z,3.818054
2019-03-05T18:58:26.594Z,3.717346
2019-03-05T19:03:50.229Z,3.707275
2019-03-05T19:09:13.209Z,3.455505
2019-03-05T19:14:35.953Z,3.405151
2019-03-05T19:19:58.748Z,3.284302
2019-03-05T19:25:21.552Z,3.173523
2019-03-05T19:30:45.060Z,3.153381
2019-03-05T19:36:09.929Z,2.992249
2019-03-05T19:41:32.959Z,3.123169
2019-03-05T19:46:55.718Z,2.972107
2019-03-05T19:52:18.922Z,2.810974
2019-03-05T19:57:41.812Z,2.871399
2019-03-05T20:03:05.175Z,2.790833
2019-03-05T20:08:28.137Z,2.770691
2019-03-05T20:13:52.203Z,2.972107
2019-03-05T20:19:15.267Z,2.921753
2019-03-05T20:24:38.471Z,2.982178
2019-03-05T20:30:01.649Z,2.941895
2019-03-05T20:35:24.899Z,2.982178
2019-03-05T20:40:49.063Z,2.992249
2019-03-05T20:46:12.071Z,3.163452
2019-03-05T20:51:35.683Z,2.982178
2019-03-05T20:56:58.987Z,3.022461
2019-03-05T21:02:22.370Z,3.26416
2019-03-05T21:07:45.227Z,3.284302
2019-03-05T21:13:08.039Z,3.203735
2019-03-05T21:18:31.236Z,2.871399
2019-03-05T21:23:54.302Z,2.901611
2019-03-05T21:29:17.223Z,2.951965
2019-03-05T21:34:39.985Z,3.022461
2019-03-05T21:40:02.741Z,3.203735
2019-03-05T21:45:26.257Z,3.38501
2019-03-05T21:50:48.952Z,3.445435
2019-03-05T21:56:12.310Z,3.254089
2019-03-05T22:01:34.949Z,3.123169
2019-03-05T22:06:57.628Z,3.123169
2019-03-05T22:12:20.362Z,3.163452
2019-03-05T22:17:43.007Z,3.203735
2019-03-05T22:23:06.253Z,3.072815
2019-03-05T22:28:29.139Z,2.861328
2019-03-05T22:33:52.144Z,3.01239
2019-03-05T22:39:14.935Z,2.951965
2019-03-05T22:44:37.942Z,3.01239
2019-03-05T22:50:00.828Z,3.022461
2019-03-05T22:55:23.649Z,2.871399
2019-03-05T23:00:46.566Z,2.770691
2019-03-05T23:06:09.409Z,2.740479
2019-03-05T23:11:32.233Z,2.740479
2019-03-05T23:16:55.060Z,2.831116
2019-03-05T23:22:18.513Z,2.871399
2019-03-05T23:27:41.340Z,2.841187
2019-03-05T23:33:04.175Z,2.649841
2019-03-05T23:38:26.959Z,2.559204
2019-03-05T23:43:49.906Z,2.478638
2019-03-05T23:49:12.733Z,2.579346
2019-03-05T23:54:35.543Z,2.619629
2019-03-05T23:59:58.366Z,2.659912
